hwlogo.jpg (8581 bytes)
Home Your Weather Products Services Weather On Your Site Contact
HW Version Logo
Weather Info
Your Weather (Options)
Canadian Weather
International Weather
Enter your " Place, State", US Zip Code or ICAO:  
Forecast Information Radar Information
Hall Beach, Northwest Territories, Canada  Lat: 68.78N, Lon: 81.25W
ICAO Used: CYUX
Current Conditions
Updated: 8:00 AM MST TUE FEB 20 2018
Sun & Moon Information
Light Snow
Light Snow
Temp: -32°C
Humidity: 67%
Wind Speed: NW 29 MPH
Barometer: 1013 mb
Dewpoint: -36°C
Heat Index: -32°C
Wind Chill: -51°C
Civil Twilight: 5:27 AM MST Moon Phase:
Waxing Crescent Moon
Sunrise: 6:29 AM MST
Sunset: 2:48 PM MST
Civil Twilight: 3:50 PM MST
Forecast for Hall Beach, NT:
(Forecast based on TAF for )
0639 AM MST TUE FEB 20 2018
  
MORNING AFTERNOON EVENING OVERNIGHT
Light
Snow
Light
Snow
Light
Snow
Light
Snow
ZoneCast:
Dated: 0639 AM MST TUE FEB 20 2018
Morning...Light snow with winds from the northwest at 23 mph and gusts up to 35 mph.

Afternoon...Light snow with winds from the northwest at 23 mph and gusts up to 35 mph.

Evening...Light snow with winds from the northwest at 23 mph and gusts up to 35 mph.

Overnight...Light snow with winds from the northwest at 23 mph and gusts up to 35 mph.

Original Encoded TAF:
Dated: 0639 AM MST TUE FEB 20 2018
2018/02/20 13:39
TAF CYUX 201238Z 2013/2101 31020G30KT 1/8SM -SN +BLSN VV002 
      TEMPO 2013/2101 1/4SM +BLSN SCT002 
      RMK NXT FCST BY 201900Z